Time;durP1;ratioP1;P1;durP2;ratioP2;P2;SDS_P1;SDS_P2;PMS_P1;PMS_P2;Temp;Humidity;BMP_temperature;BMP_pressure;BME280_temperature;BME280_humidity;BME280_pressure;Samples;Min_cycle;Max_cycle;Signal;HPM_P1;HPM_P2
2023/02/25 00:00:16;;;;;;;19.58;3.15;;;3.80;99.90;;;;;;5060665;28;20440;-67
2023/02/25 00:02:42;;;;;;;15.52;2.60;;;3.80;99.90;;;;;;5069933;28;20479;-67
2023/02/25 00:05:08;;;;;;;26.17;3.55;;;3.70;99.90;;;;;;5069367;28;20025;-68
2023/02/25 00:07:33;;;;;;;13.60;2.70;;;3.70;99.90;;;;;;5070114;28;20051;-67
2023/02/25 00:10:00;;;;;;;17.70;3.42;;;3.70;99.90;;;;;;5069828;28;20032;-67
2023/02/25 00:12:27;;;;;;;14.32;2.42;;;3.70;99.90;;;;;;5065429;28;20498;-67
2023/02/25 00:14:53;;;;;;;13.32;2.05;;;3.60;99.90;;;;;;5057801;28;20032;-67
2023/02/25 00:17:18;;;;;;;12.57;3.05;;;3.60;99.90;;;;;;5071156;28;20036;-67
2023/02/25 00:19:44;;;;;;;21.85;2.63;;;3.60;99.90;;;;;;5072752;28;20111;-67
2023/02/25 00:22:10;;;;;;;18.38;2.47;;;3.50;99.90;;;;;;5052390;28;20032;-67
2023/02/25 00:24:36;;;;;;;24.25;3.58;;;3.50;99.90;;;;;;5063054;28;20136;-68
2023/02/25 00:27:02;;;;;;;12.10;2.40;;;3.50;99.90;;;;;;5065787;28;20531;-67
2023/02/25 00:29:28;;;;;;;25.67;3.97;;;3.50;99.90;;;;;;5066567;28;20028;-67
2023/02/25 00:31:53;;;;;;;15.85;2.83;;;3.40;99.90;;;;;;5067569;28;20395;-66
2023/02/25 00:34:19;;;;;;;25.55;3.35;;;3.40;99.90;;;;;;5048484;28;20265;-66
2023/02/25 00:36:45;;;;;;;23.85;4.68;;;3.40;99.90;;;;;;5066776;28;20025;-66
2023/02/25 00:39:11;;;;;;;17.67;2.90;;;3.40;99.90;;;;;;5054138;28;20546;-68
2023/02/25 00:41:37;;;;;;;12.77;2.13;;;3.40;99.90;;;;;;5068003;28;20016;-67
2023/02/25 00:44:03;;;;;;;17.58;3.00;;;3.40;99.90;;;;;;5065742;28;20043;-67
2023/02/25 00:46:31;;;;;;;16.95;2.95;;;3.40;99.90;;;;;;5061136;28;20458;-67
2023/02/25 00:48:57;;;;;;;17.52;2.60;;;3.40;99.90;;;;;;5070401;28;20662;-67
2023/02/25 00:51:26;;;;;;;6.57;3.28;;;3.50;99.90;;;;;;5050082;28;20032;-69
2023/02/25 00:53:54;;;;;;;17.08;3.45;;;3.50;99.90;;;;;;5067163;28;20037;-68
2023/02/25 00:56:20;;;;;;;16.90;3.33;;;3.40;99.90;;;;;;5068037;28;20102;-68
2023/02/25 00:58:47;;;;;;;24.58;3.85;;;3.40;99.90;;;;;;5068586;28;21643;-67
2023/02/25 01:01:18;;;;;;;13.77;3.08;;;3.40;99.90;;;;;;5066073;28;20551;-67
2023/02/25 01:03:44;;;;;;;18.00;3.50;;;3.40;99.90;;;;;;5069842;28;20561;-66
2023/02/25 01:06:10;;;;;;;17.52;3.22;;;3.40;99.90;;;;;;5067576;28;20040;-67
2023/02/25 01:08:36;;;;;;;10.45;2.45;;;3.40;99.90;;;;;;5050342;28;21686;-67
2023/02/25 01:11:20;;;;;;;22.02;3.25;;;3.40;99.90;;;;;;5046802;28;20021;-66
2023/02/25 01:13:47;;;;;;;29.35;3.38;;;3.40;99.90;;;;;;5065577;28;20049;-67
2023/02/25 01:16:19;;;;;;;17.02;4.88;;;3.50;99.90;;;;;;5068449;28;20036;-67
2023/02/25 01:18:45;;;;;;;23.45;3.88;;;3.40;99.90;;;;;;5067046;28;20056;-67
2023/02/25 01:21:16;;;;;;;14.75;3.25;;;3.40;99.90;;;;;;5050945;28;20077;-67
2023/02/25 01:23:44;;;;;;;18.23;2.95;;;3.50;99.90;;;;;;5069811;28;20032;-65
2023/02/25 01:26:09;;;;;;;32.28;7.03;;;3.50;99.90;;;;;;5072987;28;20020;-65
2023/02/25 01:28:35;;;;;;;23.98;3.67;;;3.50;99.90;;;;;;5068942;28;20024;-66
2023/02/25 01:31:00;;;;;;;18.58;3.15;;;3.50;99.90;;;;;;5052708;28;20028;-66
2023/02/25 01:33:26;;;;;;;17.40;3.67;;;3.50;99.90;;;;;;5049424;28;20017;-66
2023/02/25 01:35:52;;;;;;;22.38;3.20;;;3.50;99.90;;;;;;5066322;28;20049;-66
2023/02/25 01:38:17;;;;;;;15.68;3.35;;;3.50;99.90;;;;;;5071089;28;20058;-66
2023/02/25 01:40:43;;;;;;;18.17;4.07;;;3.50;99.90;;;;;;5069788;28;20708;-66
2023/02/25 01:43:14;;;;;;;14.23;2.55;;;3.50;99.90;;;;;;5069396;28;20024;-66
2023/02/25 01:45:43;;;;;;;17.83;2.47;;;3.50;99.90;;;;;;5066119;28;20037;-65
2023/02/25 01:48:15;;;;;;;25.00;3.70;;;3.40;99.90;;;;;;5052637;28;20032;-65
2023/02/25 01:51:04;;;;;;;15.10;3.08;;;3.50;99.90;;;;;;5063514;28;20040;-65
2023/02/25 01:53:37;;;;;;;17.33;2.45;;;3.40;99.90;;;;;;5060088;28;20041;-66
2023/02/25 01:56:03;;;;;;;12.35;2.45;;;3.40;99.90;;;;;;5049806;28;20021;-66
2023/02/25 01:58:30;;;;;;;14.98;2.13;;;3.40;99.90;;;;;;5068325;28;20048;-66
2023/02/25 02:00:56;;;;;;;13.77;2.80;;;3.40;99.90;;;;;;5068113;28;20029;-66
2023/02/25 02:03:26;;;;;;;16.75;3.45;;;3.40;99.90;;;;;;5067093;28;20102;-65
2023/02/25 02:06:05;;;;;;;20.83;2.65;;;3.50;99.90;;;;;;5067528;28;20494;-65
2023/02/25 02:08:33;;;;;;;15.63;2.25;;;3.50;99.90;;;;;;5065559;28;20120;-66
2023/02/25 02:10:59;;;;;;;10.88;2.95;;;3.50;99.90;;;;;;5068994;28;20032;-65
2023/02/25 02:13:25;;;;;;;19.75;2.88;;;3.40;99.90;;;;;;5069180;28;20025;-65
2023/02/25 02:16:02;;;;;;;20.33;3.55;;;3.50;99.90;;;;;;5067575;28;20103;-66
2023/02/25 02:18:32;;;;;;;12.63;2.70;;;3.40;99.90;;;;;;5067959;28;20028;-66
2023/02/25 02:21:26;;;;;;;7.63;2.08;;;3.40;99.90;;;;;;5065517;28;20426;-66
2023/02/25 02:24:22;;;;;;;12.55;2.60;;;3.50;99.90;;;;;;5061078;28;20406;-66
2023/02/25 02:26:55;;;;;;;13.77;2.60;;;3.40;99.90;;;;;;5066043;28;20037;-63
2023/02/25 02:29:48;;;;;;;19.00;3.05;;;3.40;99.90;;;;;;5065799;28;20032;-64
2023/02/25 02:32:35;;;;;;;23.35;2.75;;;3.40;99.90;;;;;;5069080;28;20056;-63
2023/02/25 02:35:35;;;;;;;18.08;3.88;;;3.40;99.90;;;;;;5052813;28;20040;-63
2023/02/25 02:38:18;;;;;;;14.55;2.50;;;3.40;99.90;;;;;;5059670;28;20075;-64
2023/02/25 02:41:14;;;;;;;19.20;2.63;;;3.30;99.90;;;;;;5054238;28;20059;-64
2023/02/25 02:44:00;;;;;;;11.43;2.25;;;3.30;99.90;;;;;;5065532;28;20032;-66
2023/02/25 02:46:38;;;;;;;18.13;3.05;;;3.40;99.90;;;;;;5048833;28;20045;-65
2023/02/25 02:49:35;;;;;;;19.05;4.28;;;3.30;99.90;;;;;;5065673;28;20379;-67
2023/02/25 02:52:13;;;;;;;21.60;4.05;;;3.30;99.90;;;;;;5053411;28;20088;-66
2023/02/25 02:54:42;;;;;;;21.23;3.72;;;3.30;99.90;;;;;;5066172;28;20029;-63
2023/02/25 02:57:10;;;;;;;13.40;3.05;;;3.30;99.90;;;;;;5052970;28;20422;-64
2023/02/25 02:59:46;;;;;;;17.35;5.20;;;3.30;99.90;;;;;;5067598;28;20020;-63
2023/02/25 03:02:17;;;;;;;13.18;2.80;;;3.30;99.90;;;;;;5066627;28;20021;-63
2023/02/25 03:04:45;;;;;;;13.68;3.05;;;3.30;99.90;;;;;;5065963;28;20137;-65
2023/02/25 03:07:13;;;;;;;12.38;3.33;;;3.30;99.90;;;;;;5068739;28;20031;-65
2023/02/25 03:09:43;;;;;;;14.30;2.65;;;3.30;99.90;;;;;;5065887;28;20017;-64
2023/02/25 03:12:09;;;;;;;10.73;2.15;;;3.30;99.90;;;;;;5063593;28;20031;-64
2023/02/25 03:14:38;;;;;;;9.32;1.60;;;3.30;99.90;;;;;;5067344;28;20100;-65
2023/02/25 03:17:09;;;;;;;11.43;2.78;;;3.30;99.90;;;;;;5067306;28;20032;-65
2023/02/25 03:19:42;;;;;;;15.20;2.42;;;3.40;99.90;;;;;;5049907;28;20495;-65
2023/02/25 03:22:26;;;;;;;19.27;3.13;;;3.30;99.90;;;;;;5066280;28;20028;-64
2023/02/25 03:25:12;;;;;;;18.08;2.15;;;3.30;99.90;;;;;;5067422;28;20024;-65
2023/02/25 03:27:42;;;;;;;11.25;1.98;;;3.30;99.90;;;;;;5065517;28;20021;-65
2023/02/25 03:30:31;;;;;;;13.20;2.17;;;3.30;99.90;;;;;;5069432;28;20511;-64
2023/02/25 03:33:06;;;;;;;14.57;2.42;;;3.30;99.90;;;;;;5043775;28;20017;-64
2023/02/25 03:35:36;;;;;;;11.32;2.42;;;3.30;99.90;;;;;;5045006;28;20455;-65
2023/02/25 03:38:10;;;;;;;17.48;2.30;;;3.30;99.90;;;;;;5068186;28;20450;-65
2023/02/25 03:40:37;;;;;;;;;;;3.30;99.90;;;;;;5068200;28;20017;-66
2023/02/25 03:43:20;;;;;;;9.88;1.92;;;3.30;99.90;;;;;;5065796;28;20370;-65
2023/02/25 03:45:45;;;;;;;31.23;3.20;;;3.30;99.90;;;;;;5065523;28;20116;-64
2023/02/25 03:48:15;;;;;;;15.60;2.20;;;3.30;99.90;;;;;;5066331;28;20660;-64
2023/02/25 03:50:52;;;;;;;18.02;3.17;;;3.30;99.90;;;;;;5065501;28;20066;-65
2023/02/25 03:53:18;;;;;;;20.60;2.72;;;3.30;99.90;;;;;;5069142;28;20511;-66
2023/02/25 03:55:44;;;;;;;15.18;2.20;;;3.30;99.90;;;;;;5068146;28;20082;-65
2023/02/25 03:58:10;;;;;;;17.17;3.22;;;3.30;99.90;;;;;;5070076;28;20028;-65
2023/02/25 04:00:37;;;;;;;7.18;1.73;;;3.30;99.90;;;;;;5069353;28;20759;-64
2023/02/25 04:03:03;;;;;;;9.38;2.55;;;3.30;99.90;;;;;;5063686;28;20052;-65
2023/02/25 04:05:29;;;;;;;18.75;2.35;;;3.30;99.90;;;;;;5069661;28;20060;-65
2023/02/25 04:07:58;;;;;;;15.52;3.30;;;3.30;99.90;;;;;;5072279;28;20063;-64
2023/02/25 04:10:24;;;;;;;15.70;3.50;;;3.20;99.90;;;;;;5067623;28;20074;-65
2023/02/25 04:12:50;;;;;;;21.38;2.88;;;3.20;99.90;;;;;;5070763;28;20123;-65
2023/02/25 04:15:16;;;;;;;12.20;1.88;;;3.20;99.90;;;;;;5068015;28;20020;-65
2023/02/25 04:17:44;;;;;;;12.63;3.65;;;3.10;99.90;;;;;;5071432;28;20139;-65
2023/02/25 04:20:10;;;;;;;13.63;3.03;;;3.10;99.90;;;;;;5070923;28;20391;-64
2023/02/25 04:22:37;;;;;;;19.17;3.30;;;3.10;99.90;;;;;;5067369;28;20029;-64
2023/02/25 04:25:03;;;;;;;16.30;2.45;;;3.10;99.90;;;;;;5071061;28;20514;-65
2023/02/25 04:27:31;;;;;;;9.80;2.58;;;3.10;99.90;;;;;;5069449;28;20031;-63
2023/02/25 04:29:57;;;;;;;15.43;2.97;;;3.10;99.90;;;;;;5071307;28;20506;-65
2023/02/25 04:32:22;;;;;;;16.40;2.90;;;3.10;99.90;;;;;;5069513;28;20012;-66
2023/02/25 04:34:48;;;;;;;19.42;2.92;;;3.10;99.90;;;;;;5071090;28;20024;-64
2023/02/25 04:37:14;;;;;;;19.60;3.28;;;3.10;99.90;;;;;;5031277;28;20065;-63
2023/02/25 04:39:40;;;;;;;13.10;2.38;;;3.10;99.90;;;;;;5069770;28;20032;-65
2023/02/25 04:42:06;;;;;;;16.27;2.15;;;3.00;99.90;;;;;;5062619;28;20020;-65
2023/02/25 04:44:31;;;;;;;14.70;3.25;;;3.00;99.90;;;;;;5052549;28;20078;-65
2023/02/25 04:46:57;;;;;;;13.45;2.97;;;3.00;99.90;;;;;;5070662;28;20035;-64
2023/02/25 04:49:23;;;;;;;14.55;2.90;;;3.10;99.90;;;;;;5072508;28;20051;-64
2023/02/25 04:51:50;;;;;;;22.77;3.42;;;3.10;99.90;;;;;;5069915;28;20023;-65
2023/02/25 04:54:17;;;;;;;7.63;2.70;;;3.00;99.90;;;;;;5054288;28;20108;-64
2023/02/25 04:56:43;;;;;;;10.23;3.25;;;3.10;99.90;;;;;;5070896;28;20029;-65
2023/02/25 04:59:10;;;;;;;14.43;2.35;;;3.10;99.90;;;;;;5065501;28;20031;-65
2023/02/25 05:01:37;;;;;;;20.92;3.65;;;3.00;99.90;;;;;;5069922;28;20016;-65
2023/02/25 05:04:03;;;;;;;21.02;3.67;;;3.10;99.90;;;;;;5071870;28;20029;-64
2023/02/25 05:06:29;;;;;;;18.58;3.15;;;3.00;99.90;;;;;;5067043;28;20033;-65
2023/02/25 05:08:58;;;;;;;11.85;3.03;;;3.10;99.90;;;;;;5069473;28;20106;-66
2023/02/25 05:11:26;;;;;;;15.15;2.60;;;3.10;99.90;;;;;;5064620;28;20145;-64
2023/02/25 05:13:54;;;;;;;14.02;3.00;;;3.10;99.90;;;;;;5070316;28;20036;-62
2023/02/25 05:16:20;;;;;;;15.65;2.35;;;3.10;99.90;;;;;;5055932;28;20555;-64
2023/02/25 05:18:46;;;;;;;21.23;3.22;;;3.10;99.90;;;;;;5067778;28;20155;-63
2023/02/25 05:21:16;;;;;;;15.88;3.50;;;3.10;99.90;;;;;;5065867;28;20506;-64
2023/02/25 05:23:43;;;;;;;15.55;2.90;;;3.10;99.90;;;;;;5070195;28;20403;-65
2023/02/25 05:26:09;;;;;;;40.22;5.00;;;3.10;99.90;;;;;;5063715;28;20040;-64
2023/02/25 05:28:34;;;;;;;28.35;3.50;;;3.10;99.90;;;;;;5069960;28;20025;-65
2023/02/25 05:31:07;;;;;;;14.43;3.65;;;3.10;99.90;;;;;;5070598;28;20035;-65
2023/02/25 05:33:34;;;;;;;10.82;2.53;;;3.10;99.90;;;;;;5069219;28;20484;-65
2023/02/25 05:35:59;;;;;;;12.32;3.05;;;3.10;99.90;;;;;;5050336;28;20043;-63
2023/02/25 05:38:26;;;;;;;26.65;2.80;;;3.10;99.90;;;;;;5050434;28;20025;-64
2023/02/25 05:40:52;;;;;;;15.27;2.78;;;3.00;99.90;;;;;;5067320;28;20033;-64
2023/02/25 05:43:18;;;;;;;21.27;2.55;;;3.10;99.90;;;;;;5068841;28;20035;-65
2023/02/25 05:45:50;;;;;;;13.25;1.95;;;3.00;99.90;;;;;;5065544;28;20373;-64
2023/02/25 05:48:16;;;;;;;15.18;2.20;;;3.00;99.90;;;;;;5070440;28;20101;-65
2023/02/25 05:50:42;;;;;;;20.48;2.63;;;3.00;99.90;;;;;;5067021;28;20056;-65
2023/02/25 05:53:08;;;;;;;11.13;3.25;;;3.00;99.90;;;;;;5067196;28;20479;-65
2023/02/25 05:55:34;;;;;;;15.65;2.00;;;3.10;99.90;;;;;;5066918;28;20036;-63
2023/02/25 05:58:00;;;;;;;17.30;2.58;;;3.00;99.90;;;;;;5071245;28;20603;-65
2023/02/25 06:00:25;;;;;;;9.55;2.63;;;3.10;99.90;;;;;;5068129;28;20028;-65
2023/02/25 06:02:51;;;;;;;21.63;3.78;;;3.00;99.90;;;;;;5064917;28;20399;-65
2023/02/25 06:05:16;;;;;;;17.73;3.33;;;3.00;99.90;;;;;;5067904;28;20028;-64
2023/02/25 06:07:42;;;;;;;20.00;3.45;;;3.00;99.90;;;;;;5067967;28;20478;-66
2023/02/25 06:10:08;;;;;;;9.63;2.53;;;3.10;99.90;;;;;;5066078;28;20107;-65
2023/02/25 06:12:36;;;;;;;13.18;3.03;;;3.10;99.90;;;;;;5069516;28;20100;-65
2023/02/25 06:15:02;;;;;;;21.05;3.00;;;3.10;99.90;;;;;;5066730;28;20044;-65
2023/02/25 06:17:28;;;;;;;12.60;2.70;;;3.10;99.90;;;;;;5067313;28;20052;-65
2023/02/25 06:19:53;;;;;;;19.77;3.88;;;3.10;99.90;;;;;;5068154;28;20024;-65
2023/02/25 06:22:20;;;;;;;16.70;3.00;;;3.10;99.90;;;;;;5067845;28;20016;-64
2023/02/25 06:24:46;;;;;;;13.65;3.38;;;3.10;99.90;;;;;;5064048;28;20031;-65
2023/02/25 06:27:13;;;;;;;23.13;4.15;;;3.10;99.90;;;;;;5070338;28;20021;-65
2023/02/25 06:29:40;;;;;;;17.15;3.03;;;3.10;99.90;;;;;;5055789;28;20079;-66
2023/02/25 06:32:10;;;;;;;14.70;3.30;;;3.20;99.90;;;;;;5069284;28;20016;-65
2023/02/25 06:34:36;;;;;;;16.88;3.00;;;3.20;99.90;;;;;;5067751;28;20025;-66
2023/02/25 06:37:02;;;;;;;18.65;3.03;;;3.20;99.90;;;;;;5042069;28;20066;-66
2023/02/25 06:39:27;;;;;;;20.63;2.72;;;3.20;99.90;;;;;;5069296;28;20548;-66
2023/02/25 06:41:53;;;;;;;13.55;2.85;;;3.20;99.90;;;;;;5068061;28;20391;-65
2023/02/25 06:44:18;;;;;;;5.90;2.22;;;3.20;99.90;;;;;;5069145;28;20028;-65
2023/02/25 06:46:44;;;;;;;19.98;2.58;;;3.20;99.90;;;;;;5069002;28;20430;-65
2023/02/25 06:49:11;;;;;;;15.40;2.92;;;3.20;99.90;;;;;;5066102;28;20056;-65
2023/02/25 06:51:37;;;;;;;11.88;2.97;;;3.30;99.90;;;;;;5065869;28;20479;-65
2023/02/25 06:54:03;;;;;;;14.98;2.85;;;3.20;99.90;;;;;;5046075;28;20024;-65
2023/02/25 06:56:29;;;;;;;18.45;2.67;;;3.30;99.90;;;;;;5051384;28;20032;-66
2023/02/25 06:58:57;;;;;;;21.55;4.50;;;3.30;99.90;;;;;;5063399;28;20029;-65
2023/02/25 07:01:23;;;;;;;19.25;3.17;;;3.20;99.90;;;;;;5046134;28;20115;-65
2023/02/25 07:03:49;;;;;;;12.80;3.40;;;3.30;99.90;;;;;;5049063;28;20450;-65
2023/02/25 07:06:15;;;;;;;13.25;3.22;;;3.30;99.90;;;;;;5068672;28;20031;-65
2023/02/25 07:08:41;;;;;;;18.30;3.10;;;3.30;99.90;;;;;;5067797;28;20021;-66
2023/02/25 07:11:18;;;;;;;17.40;2.75;;;3.30;99.90;;;;;;5062434;28;20017;-66
2023/02/25 07:13:46;;;;;;;16.40;2.55;;;3.30;99.90;;;;;;5068010;28;20024;-66
2023/02/25 07:16:13;;;;;;;12.18;3.33;;;3.30;99.90;;;;;;5064532;28;20040;-65
2023/02/25 07:18:40;;;;;;;15.55;3.03;;;3.40;99.90;;;;;;5067096;28;20024;-63
2023/02/25 07:21:05;;;;;;;24.58;3.88;;;3.40;99.90;;;;;;5068173;28;20059;-66
2023/02/25 07:23:31;;;;;;;15.45;3.33;;;3.40;99.90;;;;;;5053725;28;20438;-65
2023/02/25 07:25:56;;;;;;;16.73;3.78;;;3.40;99.90;;;;;;5067137;28;20029;-67
2023/02/25 07:28:22;;;;;;;14.05;2.88;;;3.40;99.90;;;;;;5068501;28;20053;-63
2023/02/25 07:30:48;;;;;;;17.77;2.20;;;3.40;99.90;;;;;;5052326;28;20024;-66
2023/02/25 07:33:13;;;;;;;20.00;2.92;;;3.50;99.90;;;;;;5071866;28;20062;-66
2023/02/25 07:35:39;;;;;;;23.80;3.42;;;3.50;99.90;;;;;;5051722;28;20398;-66
2023/02/25 07:38:04;;;;;;;12.40;3.30;;;3.50;99.90;;;;;;5072575;28;20043;-66
2023/02/25 07:40:30;;;;;;;14.05;3.30;;;3.60;99.90;;;;;;5068862;28;20456;-66
2023/02/25 07:42:55;;;;;;;12.57;3.63;;;3.60;99.90;;;;;;5072886;28;20449;-67
2023/02/25 07:45:22;;;;;;;19.42;3.38;;;3.60;99.90;;;;;;5067465;28;20029;-64
2023/02/25 07:47:51;;;;;;;18.30;3.10;;;3.70;99.90;;;;;;5069951;28;20387;-65
2023/02/25 07:50:16;;;;;;;18.52;2.65;;;3.70;99.90;;;;;;5068219;28;20518;-66
2023/02/25 07:52:42;;;;;;;21.20;3.17;;;3.70;99.90;;;;;;5072032;28;20029;-67
2023/02/25 07:55:08;;;;;;;15.52;2.65;;;3.80;99.90;;;;;;5052976;28;20134;-66
2023/02/25 07:57:34;;;;;;;18.35;2.85;;;3.90;99.90;;;;;;5070496;28;20020;-66
2023/02/25 08:00:00;;;;;;;12.73;3.25;;;3.90;99.90;;;;;;5070007;28;20020;-65
2023/02/25 08:02:25;;;;;;;10.55;2.80;;;4.00;99.90;;;;;;5068720;28;20108;-66
2023/02/25 08:04:51;;;;;;;18.55;3.75;;;4.10;99.90;;;;;;5070888;28;20029;-66
2023/02/25 08:07:16;;;;;;;15.27;2.72;;;4.00;99.90;;;;;;5068198;28;20024;-65
2023/02/25 08:09:42;;;;;;;15.85;3.40;;;4.10;99.90;;;;;;5069795;28;20646;-65
2023/02/25 08:12:08;;;;;;;18.27;3.00;;;4.10;99.90;;;;;;5067048;28;20092;-67
2023/02/25 08:14:36;;;;;;;12.73;2.85;;;4.10;99.90;;;;;;5070402;28;20429;-66
2023/02/25 08:17:01;;;;;;;14.32;2.75;;;4.10;99.90;;;;;;5070253;28;20055;-65
2023/02/25 08:19:28;;;;;;;19.80;3.20;;;4.00;99.90;;;;;;5069560;28;20495;-66
2023/02/25 08:21:53;;;;;;;9.88;2.80;;;4.00;99.90;;;;;;5066337;28;20032;-66
2023/02/25 08:24:20;;;;;;;20.73;3.67;;;4.10;99.90;;;;;;5072408;28;20023;-66
2023/02/25 08:26:47;;;;;;;17.60;3.10;;;4.20;99.90;;;;;;5067664;28;20166;-67
2023/02/25 08:29:12;;;;;;;9.93;2.72;;;4.30;99.90;;;;;;5054614;28;20025;-67
2023/02/25 08:31:38;;;;;;;12.40;2.58;;;4.50;99.90;;;;;;5069020;28;20031;-67
2023/02/25 08:34:03;;;;;;;16.55;4.18;;;4.60;99.90;;;;;;5069104;28;20100;-67
2023/02/25 08:36:30;;;;;;;14.65;3.45;;;4.70;99.90;;;;;;5040414;28;20045;-67
2023/02/25 08:38:58;;;;;;;18.08;4.53;;;4.70;99.90;;;;;;5068576;28;20027;-66
2023/02/25 08:41:25;;;;;;;24.00;3.45;;;4.80;99.90;;;;;;5067113;28;20012;-67
2023/02/25 08:43:53;;;;;;;17.45;2.63;;;5.00;99.90;;;;;;5070652;28;20495;-66
2023/02/25 08:46:23;;;;;;;14.63;3.38;;;5.00;99.90;;;;;;5071447;28;20085;-67
2023/02/25 08:48:50;;;;;;;16.17;3.70;;;5.10;99.90;;;;;;5070430;28;20103;-66
2023/02/25 08:51:17;;;;;;;6.22;2.00;;;5.20;99.90;;;;;;5062884;22;20049;-66
2023/02/25 08:53:43;;;;;;;20.75;4.10;;;5.20;99.90;;;;;;5007207;28;20025;-66
2023/02/25 08:56:11;;;;;;;11.02;2.47;;;5.10;99.90;;;;;;5030569;28;20519;-66
2023/02/25 08:58:38;;;;;;;13.98;3.65;;;5.00;99.90;;;;;;5031617;28;20100;-66
2023/02/25 09:01:13;;;;;;;14.05;4.22;;;4.90;99.90;;;;;;5025434;28;20030;-67
2023/02/25 09:03:51;;;;;;;24.08;5.13;;;4.80;99.90;;;;;;5020895;28;20088;-66
2023/02/25 09:06:26;;;;;;;13.73;4.13;;;4.60;99.90;;;;;;5002788;28;20497;-66
2023/02/25 09:08:53;;;;;;;20.25;3.58;;;4.40;99.90;;;;;;5023635;28;20018;-65
2023/02/25 09:11:20;;;;;;;10.52;3.58;;;4.30;99.90;;;;;;5013470;28;20028;-65
2023/02/25 09:13:46;;;;;;;12.55;3.13;;;4.20;99.90;;;;;;5012699;28;20054;-65
2023/02/25 09:16:16;;;;;;;29.15;4.43;;;4.10;99.90;;;;;;5028210;28;20053;-66
2023/02/25 09:18:43;;;;;;;26.35;3.95;;;4.00;99.90;;;;;;5020293;28;20029;-66
2023/02/25 09:21:09;;;;;;;13.45;4.45;;;4.00;99.90;;;;;;5020279;28;20030;-65
2023/02/25 09:23:35;;;;;;;18.05;5.22;;;4.10;99.90;;;;;;5017899;28;20022;-66
2023/02/25 09:26:03;;;;;;;24.48;5.15;;;4.10;99.90;;;;;;5003353;28;20041;-64
2023/02/25 09:28:28;;;;;;;12.52;4.43;;;4.10;99.90;;;;;;5013859;28;20068;-65
2023/02/25 09:30:56;;;;;;;27.95;5.15;;;4.00;99.90;;;;;;5006302;28;20408;-66
2023/02/25 09:33:22;;;;;;;20.30;5.97;;;4.00;99.90;;;;;;5015203;28;20088;-65
2023/02/25 09:35:47;;;;;;;14.40;4.53;;;4.00;99.90;;;;;;5008695;28;20022;-65
2023/02/25 09:38:13;;;;;;;20.83;5.65;;;3.90;99.90;;;;;;4992470;28;20424;-65
2023/02/25 09:40:44;;;;;;;21.08;5.55;;;3.90;99.90;;;;;;5016208;28;20108;-65
2023/02/25 09:43:21;;;;;;;25.88;6.38;;;3.90;99.90;;;;;;5014330;28;20033;-66
2023/02/25 09:45:49;;;;;;;23.00;4.80;;;3.90;99.90;;;;;;5015169;28;20033;-66
2023/02/25 09:48:25;;;;;;;16.48;5.43;;;3.80;99.90;;;;;;5006463;28;20021;-66
2023/02/25 09:50:56;;;;;;;15.35;5.00;;;3.80;99.90;;;;;;5012855;28;20560;-65
2023/02/25 09:53:48;;;;;;;23.50;5.38;;;4.00;99.90;;;;;;5004825;28;20071;-64
2023/02/25 09:56:17;;;;;;;12.90;5.43;;;4.00;99.90;;;;;;5014329;28;20058;-66
2023/02/25 09:58:51;;;;;;;16.25;5.60;;;4.00;99.90;;;;;;4993036;28;20034;-66
2023/02/25 10:01:44;;;;;;;19.73;4.68;;;4.10;99.90;;;;;;4997493;28;20029;-65
2023/02/25 10:04:16;;;;;;;17.33;5.78;;;4.00;99.90;;;;;;5019292;28;20026;-66
2023/02/25 10:06:46;;;;;;;18.55;5.22;;;4.20;99.90;;;;;;4991919;28;20029;-65
2023/02/25 10:09:21;;;;;;;18.05;4.43;;;4.30;99.90;;;;;;5003599;28;20058;-65
2023/02/25 10:12:15;;;;;;;12.77;6.25;;;4.40;99.90;;;;;;5004368;28;20030;-65
2023/02/25 10:15:00;;;;;;;19.58;5.82;;;4.80;99.90;;;;;;4974902;28;20056;-65
2023/02/25 10:17:28;;;;;;;;;;;5.10;99.90;;;;;;5008051;28;20480;-66
2023/02/25 10:20:33;;;;;;;29.60;10.55;;;5.40;99.90;;;;;;4993850;28;19906;-66
2023/02/25 10:22:59;;;;;;;;;;;5.80;99.90;;;;;;4991946;28;20503;-66
2023/02/25 10:25:29;;;;;;;21.65;7.60;;;6.00;99.90;;;;;;5005517;28;19921;-65
2023/02/25 10:27:59;;;;;;;14.48;5.22;;;6.20;99.90;;;;;;4991641;28;20472;-65
2023/02/25 10:30:47;;;;;;;13.40;3.78;;;6.40;99.90;;;;;;4992637;28;20501;-65
2023/02/25 10:33:17;;;;;;;12.00;4.18;;;6.10;99.90;;;;;;5013227;28;20052;-66
2023/02/25 10:35:43;;;;;;;10.95;4.32;;;6.30;99.90;;;;;;4999171;28;20622;-66
2023/02/25 10:38:11;;;;;;;16.52;5.45;;;6.20;99.90;;;;;;4985986;28;20046;-65
2023/02/25 10:40:39;;;;;;;12.18;4.97;;;6.40;99.90;;;;;;5008735;28;20440;-66
2023/02/25 10:43:20;;;;;;;12.75;5.28;;;6.60;99.90;;;;;;5027481;28;20029;-66
2023/02/25 10:45:50;;;;;;;19.75;4.00;;;6.30;99.90;;;;;;5009462;28;20165;-65
2023/02/25 10:48:23;;;;;;;13.73;3.80;;;6.10;99.90;;;;;;5011222;28;20076;-66
2023/02/25 10:51:12;;;;;;;11.80;4.38;;;6.10;99.90;;;;;;5018813;28;20101;-65
2023/02/25 10:53:58;;;;;;;18.65;5.25;;;6.30;99.90;;;;;;5007140;28;20026;-66
2023/02/25 10:56:48;;;;;;;10.43;4.13;;;6.60;99.90;;;;;;5011444;28;20052;-66
2023/02/25 10:59:28;;;;;;;9.65;3.90;;;6.30;99.90;;;;;;5016161;28;20028;-67
2023/02/25 11:01:55;;;;;;;19.15;6.38;;;5.90;99.90;;;;;;5017836;28;20353;-66
2023/02/25 11:04:31;;;;;;;14.05;4.32;;;5.60;99.90;;;;;;5016555;28;20534;-66
2023/02/25 11:06:56;;;;;;;12.07;3.95;;;5.70;99.90;;;;;;5013395;28;20030;-66
2023/02/25 11:09:22;;;;;;;18.38;5.20;;;5.70;99.90;;;;;;5003961;28;20071;-66
2023/02/25 11:12:08;;;;;;;14.50;5.15;;;5.80;99.90;;;;;;5015150;28;20400;-66
2023/02/25 11:14:36;;;;;;;6.45;3.25;;;6.20;99.90;;;;;;5004856;28;20026;-65
2023/02/25 11:17:19;;;;;;;12.85;5.72;;;6.30;99.90;;;;;;5005347;28;20025;-66
2023/02/25 11:20:05;;;;;;;11.93;3.10;;;6.30;99.90;;;;;;5011428;28;20041;-66
2023/02/25 11:22:42;;;;;;;8.50;2.20;;;6.20;99.90;;;;;;5005300;28;20030;-66
2023/02/25 11:25:17;;;;;;;6.00;2.00;;;6.00;99.90;;;;;;5011805;28;20116;-65
2023/02/25 11:27:52;;;;;;;6.85;1.90;;;6.00;99.90;;;;;;5013804;28;20437;-66
2023/02/25 11:30:24;;;;;;;7.65;2.30;;;6.00;99.90;;;;;;5011806;28;20021;-66
2023/02/25 11:32:54;;;;;;;10.95;2.90;;;6.30;99.90;;;;;;4993774;28;20029;-67
2023/02/25 11:35:29;;;;;;;10.57;2.90;;;6.30;99.90;;;;;;5010391;28;20021;-67
2023/02/25 11:38:23;;;;;;;8.65;1.85;;;6.40;99.90;;;;;;4981454;28;20050;-66
2023/02/25 11:40:48;;;;;;;9.63;3.28;;;6.50;99.90;;;;;;5010006;28;20029;-66
2023/02/25 11:43:22;;;;;;;10.18;2.70;;;6.60;99.90;;;;;;5014882;28;20037;-65
2023/02/25 11:46:13;;;;;;;6.97;2.05;;;6.70;99.90;;;;;;5015719;28;20117;-66
2023/02/25 11:48:56;;;;;;;8.48;2.67;;;6.30;99.90;;;;;;5007711;28;20030;-67
2023/02/25 11:51:29;;;;;;;7.85;2.45;;;6.20;99.90;;;;;;5007989;28;20112;-67
2023/02/25 11:54:19;;;;;;;4.53;1.42;;;5.90;99.90;;;;;;5021229;28;20028;-67
2023/02/25 11:57:12;;;;;;;4.57;2.03;;;6.10;99.90;;;;;;5008992;28;20547;-67
2023/02/25 11:59:37;;;;;;;2.42;1.45;;;6.30;99.90;;;;;;5013916;28;20068;-67
2023/02/25 12:02:19;;;;;;;7.97;1.48;;;6.00;99.90;;;;;;5011902;28;20060;-67
2023/02/25 12:05:04;;;;;;;5.47;1.15;;;5.80;99.90;;;;;;5010370;28;20034;-67
2023/02/25 12:07:52;;;;;;;8.73;1.60;;;5.20;99.90;;;;;;4984448;28;20033;-66
2023/02/25 12:10:24;;;;;;;4.47;0.88;;;4.70;99.90;;;;;;5025448;28;20069;-66
2023/02/25 12:13:09;;;;;;;7.05;2.05;;;4.50;99.90;;;;;;5017895;28;20112;-67
2023/02/25 12:15:53;;;;;;;3.53;1.00;;;4.50;99.90;;;;;;5003489;28;20022;-67
2023/02/25 12:18:36;;;;;;;3.40;0.95;;;4.60;99.90;;;;;;5032141;28;20020;-64
2023/02/25 12:21:18;;;;;;;6.68;1.08;;;4.70;99.90;;;;;;5014959;28;20030;-67
2023/02/25 12:24:14;;;;;;;6.18;1.63;;;5.00;99.90;;;;;;5020268;28;20034;-66
2023/02/25 12:27:21;;;;;;;2.17;1.00;;;5.00;99.90;;;;;;5009943;28;20504;-66
2023/02/25 12:30:05;;;;;;;6.60;1.90;;;4.90;99.90;;;;;;4993417;28;20049;-67
2023/02/25 12:32:46;;;;;;;;;;;5.10;99.90;;;;;;5010392;28;20544;-67
2023/02/25 12:35:43;;;;;;;4.95;1.42;;;5.20;99.90;;;;;;4993789;28;19917;-66
2023/02/25 12:38:36;;;;;;;3.00;1.13;;;5.40;99.90;;;;;;4961428;28;20058;-67
2023/02/25 12:41:01;;;;;;;1.38;0.80;;;5.50;99.90;;;;;;5011618;28;20026;-67
2023/02/25 12:43:32;;;;;;;2.58;1.05;;;5.50;99.90;;;;;;5008148;28;20456;-68
2023/02/25 12:46:14;;;;;;;5.00;1.25;;;5.50;99.90;;;;;;5005637;28;20053;-66
2023/02/25 12:49:03;;;;;;;1.77;0.65;;;5.60;99.90;;;;;;5010979;28;20029;-67
2023/02/25 12:51:40;;;;;;;4.60;0.93;;;5.60;99.90;;;;;;5005972;28;20042;-68
2023/02/25 12:54:44;;;;;;;6.82;1.55;;;5.40;99.90;;;;;;4991329;28;20057;-66
2023/02/25 12:57:27;;;;;;;6.25;1.42;;;5.40;99.90;;;;;;5009924;28;20508;-69
2023/02/25 12:59:52;;;;;;;2.53;0.85;;;5.40;99.90;;;;;;4997018;28;20045;-67
2023/02/25 13:02:52;;;;;;;4.82;2.05;;;5.20;99.90;;;;;;5002793;28;20041;-67
2023/02/25 13:05:39;;;;;;;6.70;1.50;;;5.10;99.90;;;;;;5016269;28;20072;-67
2023/02/25 13:08:37;;;;;;;4.82;0.90;;;5.00;99.90;;;;;;5007614;28;20034;-67
2023/02/25 13:11:42;;;;;;;5.28;1.20;;;5.00;99.90;;;;;;5001907;28;20032;-67